sensor_id;sensor_type;location;lat;lon;timestamp;temperature;humidity
43987;DHT22;29650;47.378;8.300;2022-09-14T00:00:39;20.60;99.90
43987;DHT22;29650;47.378;8.300;2022-09-14T00:03:06;20.60;99.90
43987;DHT22;29650;47.378;8.300;2022-09-14T00:05:34;20.60;99.90
43987;DHT22;29650;47.378;8.300;2022-09-14T00:08:01;20.60;99.90
43987;DHT22;29650;47.378;8.300;2022-09-14T00:10:28;20.60;99.90
43987;DHT22;29650;47.378;8.300;2022-09-14T00:12:56;20.60;99.90
43987;DHT22;29650;47.378;8.300;2022-09-14T00:15:24;20.60;99.90
43987;DHT22;29650;47.378;8.300;2022-09-14T00:17:51;20.70;99.90
43987;DHT22;29650;47.378;8.300;2022-09-14T00:20:18;20.60;99.90
43987;DHT22;29650;47.378;8.300;2022-09-14T00:22:45;20.60;99.90
43987;DHT22;29650;47.378;8.300;2022-09-14T00:25:13;20.50;99.90
43987;DHT22;29650;47.378;8.300;2022-09-14T00:27:39;20.60;99.90
43987;DHT22;29650;47.378;8.300;2022-09-14T00:30:09;20.60;99.90
43987;DHT22;29650;47.378;8.300;2022-09-14T00:32:36;20.60;99.90
43987;DHT22;29650;47.378;8.300;2022-09-14T00:35:03;20.60;99.90
43987;DHT22;29650;47.378;8.300;2022-09-14T00:37:30;20.50;99.90
43987;DHT22;29650;47.378;8.300;2022-09-14T00:39:57;20.40;99.90
43987;DHT22;29650;47.378;8.300;2022-09-14T00:42:24;20.40;99.90
43987;DHT22;29650;47.378;8.300;2022-09-14T00:44:59;20.30;99.90
43987;DHT22;29650;47.378;8.300;2022-09-14T00:47:29;20.40;99.90
43987;DHT22;29650;47.378;8.300;2022-09-14T00:49:59;20.40;99.90
43987;DHT22;29650;47.378;8.300;2022-09-14T00:52:29;20.30;99.90
43987;DHT22;29650;47.378;8.300;2022-09-14T00:55:00;20.30;99.90
43987;DHT22;29650;47.378;8.300;2022-09-14T00:57:30;20.30;99.90
43987;DHT22;29650;47.378;8.300;2022-09-14T00:59:59;20.40;99.90
43987;DHT22;29650;47.378;8.300;2022-09-14T01:02:28;20.40;99.90
43987;DHT22;29650;47.378;8.300;2022-09-14T01:04:55;20.40;99.90
43987;DHT22;29650;47.378;8.300;2022-09-14T01:07:35;20.40;99.90
43987;DHT22;29650;47.378;8.300;2022-09-14T01:10:16;20.50;99.90
43987;DHT22;29650;47.378;8.300;2022-09-14T01:12:51;20.40;99.90
43987;DHT22;29650;47.378;8.300;2022-09-14T01:15:26;20.40;99.90
43987;DHT22;29650;47.378;8.300;2022-09-14T01:18:01;20.40;99.90
43987;DHT22;29650;47.378;8.300;2022-09-14T01:20:36;20.40;99.90
43987;DHT22;29650;47.378;8.300;2022-09-14T01:23:08;20.40;99.90
43987;DHT22;29650;47.378;8.300;2022-09-14T01:25:57;20.40;99.90
43987;DHT22;29650;47.378;8.300;2022-09-14T01:28:31;20.40;99.90
43987;DHT22;29650;47.378;8.300;2022-09-14T01:31:03;20.20;99.90
43987;DHT22;29650;47.378;8.300;2022-09-14T01:33:35;20.20;99.90
43987;DHT22;29650;47.378;8.300;2022-09-14T01:36:06;20.20;99.90
43987;DHT22;29650;47.378;8.300;2022-09-14T01:38:36;20.30;99.90
43987;DHT22;29650;47.378;8.300;2022-09-14T01:41:07;20.20;99.90
43987;DHT22;29650;47.378;8.300;2022-09-14T01:43:38;20.20;99.90
43987;DHT22;29650;47.378;8.300;2022-09-14T01:46:10;20.20;99.90
43987;DHT22;29650;47.378;8.300;2022-09-14T01:48:43;20.20;99.90
43987;DHT22;29650;47.378;8.300;2022-09-14T01:51:15;20.20;99.90
43987;DHT22;29650;47.378;8.300;2022-09-14T01:53:46;20.10;99.90
43987;DHT22;29650;47.378;8.300;2022-09-14T01:56:16;20.00;99.90
43987;DHT22;29650;47.378;8.300;2022-09-14T01:58:49;20.10;99.90
43987;DHT22;29650;47.378;8.300;2022-09-14T02:01:20;20.10;99.90
43987;DHT22;29650;47.378;8.300;2022-09-14T02:03:52;20.20;99.90
43987;DHT22;29650;47.378;8.300;2022-09-14T02:06:24;20.20;99.90
43987;DHT22;29650;47.378;8.300;2022-09-14T02:08:52;20.10;99.90
43987;DHT22;29650;47.378;8.300;2022-09-14T02:11:20;20.20;99.90
43987;DHT22;29650;47.378;8.300;2022-09-14T02:13:48;20.00;99.90
43987;DHT22;29650;47.378;8.300;2022-09-14T02:16:15;20.10;99.90
43987;DHT22;29650;47.378;8.300;2022-09-14T02:18:42;19.60;99.90
43987;DHT22;29650;47.378;8.300;2022-09-14T02:21:13;20.00;99.90
43987;DHT22;29650;47.378;8.300;2022-09-14T02:23:41;20.00;99.90
43987;DHT22;29650;47.378;8.300;2022-09-14T02:26:08;20.10;99.90
43987;DHT22;29650;47.378;8.300;2022-09-14T02:28:36;20.70;99.90
43987;DHT22;29650;47.378;8.300;2022-09-14T02:31:14;21.00;99.90
43987;DHT22;29650;47.378;8.300;2022-09-14T02:33:47;20.60;99.90
43987;DHT22;29650;47.378;8.300;2022-09-14T02:36:21;20.80;99.90
43987;DHT22;29650;47.378;8.300;2022-09-14T02:38:56;21.00;99.90
43987;DHT22;29650;47.378;8.300;2022-09-14T02:41:47;21.20;99.90
43987;DHT22;29650;47.378;8.300;2022-09-14T02:44:19;21.30;99.90
43987;DHT22;29650;47.378;8.300;2022-09-14T02:46:56;21.40;99.90
43987;DHT22;29650;47.378;8.300;2022-09-14T02:49:28;21.60;99.90
43987;DHT22;29650;47.378;8.300;2022-09-14T02:52:01;21.70;99.90
43987;DHT22;29650;47.378;8.300;2022-09-14T02:54:32;21.70;99.90
43987;DHT22;29650;47.378;8.300;2022-09-14T02:57:01;21.80;99.90
43987;DHT22;29650;47.378;8.300;2022-09-14T02:59:29;21.80;99.90
43987;DHT22;29650;47.378;8.300;2022-09-14T03:01:58;21.70;99.90
43987;DHT22;29650;47.378;8.300;2022-09-14T03:04:25;21.70;99.90
43987;DHT22;29650;47.378;8.300;2022-09-14T03:06:52;21.70;99.90
43987;DHT22;29650;47.378;8.300;2022-09-14T03:09:19;21.70;99.90
43987;DHT22;29650;47.378;8.300;2022-09-14T03:11:46;21.60;99.90
43987;DHT22;29650;47.378;8.300;2022-09-14T03:14:13;21.70;99.90
43987;DHT22;29650;47.378;8.300;2022-09-14T03:16:40;21.70;99.90
43987;DHT22;29650;47.378;8.300;2022-09-14T03:19:08;21.60;99.90
43987;DHT22;29650;47.378;8.300;2022-09-14T03:21:37;21.70;99.90
43987;DHT22;29650;47.378;8.300;2022-09-14T03:24:05;21.60;99.90
43987;DHT22;29650;47.378;8.300;2022-09-14T03:26:32;21.70;99.90
43987;DHT22;29650;47.378;8.300;2022-09-14T03:29:01;21.70;99.90
43987;DHT22;29650;47.378;8.300;2022-09-14T03:31:29;21.60;99.90
43987;DHT22;29650;47.378;8.300;2022-09-14T03:33:57;21.60;99.90
43987;DHT22;29650;47.378;8.300;2022-09-14T03:36:27;21.70;99.90
43987;DHT22;29650;47.378;8.300;2022-09-14T03:38:56;21.60;99.90
43987;DHT22;29650;47.378;8.300;2022-09-14T03:41:24;21.60;99.90
43987;DHT22;29650;47.378;8.300;2022-09-14T03:43:51;21.50;99.90
43987;DHT22;29650;47.378;8.300;2022-09-14T03:46:19;21.50;99.90
43987;DHT22;29650;47.378;8.300;2022-09-14T03:48:46;21.50;99.90
43987;DHT22;29650;47.378;8.300;2022-09-14T03:51:14;21.50;99.90
43987;DHT22;29650;47.378;8.300;2022-09-14T03:53:43;21.50;99.90
43987;DHT22;29650;47.378;8.300;2022-09-14T03:56:12;21.40;99.90
43987;DHT22;29650;47.378;8.300;2022-09-14T03:58:39;21.50;99.90
43987;DHT22;29650;47.378;8.300;2022-09-14T04:01:08;21.50;99.90
43987;DHT22;29650;47.378;8.300;2022-09-14T04:03:36;21.40;99.90
43987;DHT22;29650;47.378;8.300;2022-09-14T04:06:04;21.40;99.90
43987;DHT22;29650;47.378;8.300;2022-09-14T04:08:31;21.40;99.90
43987;DHT22;29650;47.378;8.300;2022-09-14T04:11:00;21.40;99.90
43987;DHT22;29650;47.378;8.300;2022-09-14T04:13:27;21.40;99.90
43987;DHT22;29650;47.378;8.300;2022-09-14T04:15:57;21.40;99.90
43987;DHT22;29650;47.378;8.300;2022-09-14T04:18:25;21.30;99.90
43987;DHT22;29650;47.378;8.300;2022-09-14T04:20:56;21.20;99.90
43987;DHT22;29650;47.378;8.300;2022-09-14T04:23:23;21.10;99.90
43987;DHT22;29650;47.378;8.300;2022-09-14T04:25:50;21.20;99.90
43987;DHT22;29650;47.378;8.300;2022-09-14T04:28:19;21.10;99.90
43987;DHT22;29650;47.378;8.300;2022-09-14T04:30:54;21.20;99.90
43987;DHT22;29650;47.378;8.300;2022-09-14T04:33:21;21.10;99.90
43987;DHT22;29650;47.378;8.300;2022-09-14T04:35:55;21.10;99.90
43987;DHT22;29650;47.378;8.300;2022-09-14T04:38:23;21.10;99.90
43987;DHT22;29650;47.378;8.300;2022-09-14T04:40:50;21.10;99.90
43987;DHT22;29650;47.378;8.300;2022-09-14T04:43:18;21.10;99.90
43987;DHT22;29650;47.378;8.300;2022-09-14T04:45:45;21.00;99.90
43987;DHT22;29650;47.378;8.300;2022-09-14T04:48:13;20.90;99.90
43987;DHT22;29650;47.378;8.300;2022-09-14T04:50:40;20.80;99.90
43987;DHT22;29650;47.378;8.300;2022-09-14T04:53:08;20.80;99.90
43987;DHT22;29650;47.378;8.300;2022-09-14T04:55:35;20.80;99.90
43987;DHT22;29650;47.378;8.300;2022-09-14T04:58:02;20.80;99.90
43987;DHT22;29650;47.378;8.300;2022-09-14T05:00:32;20.70;99.90
43987;DHT22;29650;47.378;8.300;2022-09-14T05:03:00;20.60;99.90
43987;DHT22;29650;47.378;8.300;2022-09-14T05:05:27;20.50;99.90
43987;DHT22;29650;47.378;8.300;2022-09-14T05:07:54;20.50;99.90
43987;DHT22;29650;47.378;8.300;2022-09-14T05:10:21;20.50;99.90
43987;DHT22;29650;47.378;8.300;2022-09-14T05:12:48;20.40;99.90
43987;DHT22;29650;47.378;8.300;2022-09-14T05:15:15;20.30;99.90
43987;DHT22;29650;47.378;8.300;2022-09-14T05:17:43;20.30;99.90
43987;DHT22;29650;47.378;8.300;2022-09-14T05:20:10;20.30;99.90
43987;DHT22;29650;47.378;8.300;2022-09-14T05:22:37;20.30;99.90
43987;DHT22;29650;47.378;8.300;2022-09-14T05:25:04;20.20;99.90
43987;DHT22;29650;47.378;8.300;2022-09-14T05:27:31;20.30;99.90
43987;DHT22;29650;47.378;8.300;2022-09-14T05:29:58;20.30;99.90
43987;DHT22;29650;47.378;8.300;2022-09-14T05:32:25;20.30;99.90
43987;DHT22;29650;47.378;8.300;2022-09-14T05:34:53;20.30;99.90
43987;DHT22;29650;47.378;8.300;2022-09-14T05:37:20;20.30;99.90
43987;DHT22;29650;47.378;8.300;2022-09-14T05:39:47;20.40;99.90
43987;DHT22;29650;47.378;8.300;2022-09-14T05:42:14;20.30;99.90
43987;DHT22;29650;47.378;8.300;2022-09-14T05:44:41;20.40;99.90
43987;DHT22;29650;47.378;8.300;2022-09-14T05:47:08;20.40;99.90
43987;DHT22;29650;47.378;8.300;2022-09-14T05:49:34;20.30;99.90
43987;DHT22;29650;47.378;8.300;2022-09-14T05:52:03;20.30;99.90
43987;DHT22;29650;47.378;8.300;2022-09-14T05:54:30;20.30;99.90
43987;DHT22;29650;47.378;8.300;2022-09-14T05:56:57;20.20;99.90
43987;DHT22;29650;47.378;8.300;2022-09-14T05:59:24;20.20;99.90
43987;DHT22;29650;47.378;8.300;2022-09-14T06:01:50;20.20;99.90
43987;DHT22;29650;47.378;8.300;2022-09-14T06:04:17;20.20;99.90
43987;DHT22;29650;47.378;8.300;2022-09-14T06:06:44;20.20;99.90
43987;DHT22;29650;47.378;8.300;2022-09-14T06:09:12;20.30;99.90
43987;DHT22;29650;47.378;8.300;2022-09-14T06:11:40;20.30;99.90
43987;DHT22;29650;47.378;8.300;2022-09-14T06:14:07;20.30;99.90
43987;DHT22;29650;47.378;8.300;2022-09-14T06:16:34;20.20;99.90
43987;DHT22;29650;47.378;8.300;2022-09-14T06:19:02;20.30;99.90
43987;DHT22;29650;47.378;8.300;2022-09-14T06:21:30;20.30;99.90
43987;DHT22;29650;47.378;8.300;2022-09-14T06:23:58;20.30;99.90
43987;DHT22;29650;47.378;8.300;2022-09-14T06:26:26;20.40;99.90
43987;DHT22;29650;47.378;8.300;2022-09-14T06:28:53;20.40;99.90
43987;DHT22;29650;47.378;8.300;2022-09-14T06:31:20;20.40;99.90
43987;DHT22;29650;47.378;8.300;2022-09-14T06:33:50;20.30;99.90
43987;DHT22;29650;47.378;8.300;2022-09-14T06:36:19;20.30;99.90
43987;DHT22;29650;47.378;8.300;2022-09-14T06:38:47;20.40;99.90
43987;DHT22;29650;47.378;8.300;2022-09-14T06:41:16;20.40;99.90
43987;DHT22;29650;47.378;8.300;2022-09-14T06:43:45;20.50;99.90
43987;DHT22;29650;47.378;8.300;2022-09-14T06:46:13;20.40;99.90
43987;DHT22;29650;47.378;8.300;2022-09-14T06:48:44;20.50;99.90
43987;DHT22;29650;47.378;8.300;2022-09-14T06:51:14;20.50;99.90
43987;DHT22;29650;47.378;8.300;2022-09-14T06:53:41;20.60;99.90
43987;DHT22;29650;47.378;8.300;2022-09-14T06:56:08;20.50;99.90
43987;DHT22;29650;47.378;8.300;2022-09-14T06:58:35;20.50;99.90
43987;DHT22;29650;47.378;8.300;2022-09-14T07:01:04;20.50;99.90
43987;DHT22;29650;47.378;8.300;2022-09-14T07:03:34;20.50;99.90
43987;DHT22;29650;47.378;8.300;2022-09-14T07:06:03;20.60;99.90
43987;DHT22;29650;47.378;8.300;2022-09-14T07:08:31;20.60;99.90
43987;DHT22;29650;47.378;8.300;2022-09-14T07:10:58;20.60;99.90
43987;DHT22;29650;47.378;8.300;2022-09-14T07:13:26;20.60;99.90
43987;DHT22;29650;47.378;8.300;2022-09-14T07:15:53;20.60;99.90
43987;DHT22;29650;47.378;8.300;2022-09-14T07:18:23;20.60;99.90
43987;DHT22;29650;47.378;8.300;2022-09-14T07:21:00;20.70;99.90
43987;DHT22;29650;47.378;8.300;2022-09-14T07:23:28;20.70;99.90
43987;DHT22;29650;47.378;8.300;2022-09-14T07:26:01;20.70;99.90
43987;DHT22;29650;47.378;8.300;2022-09-14T07:28:29;20.80;99.90
43987;DHT22;29650;47.378;8.300;2022-09-14T07:30:56;20.90;99.90
43987;DHT22;29650;47.378;8.300;2022-09-14T07:33:24;20.90;99.90
43987;DHT22;29650;47.378;8.300;2022-09-14T07:35:51;20.90;99.90
43987;DHT22;29650;47.378;8.300;2022-09-14T07:38:18;21.10;99.90
43987;DHT22;29650;47.378;8.300;2022-09-14T07:40:46;21.10;99.90
43987;DHT22;29650;47.378;8.300;2022-09-14T07:43:13;21.10;99.90
43987;DHT22;29650;47.378;8.300;2022-09-14T07:45:40;21.20;99.90
43987;DHT22;29650;47.378;8.300;2022-09-14T07:48:06;21.30;99.90
43987;DHT22;29650;47.378;8.300;2022-09-14T07:50:35;21.50;99.90
43987;DHT22;29650;47.378;8.300;2022-09-14T07:53:01;21.50;99.90
43987;DHT22;29650;47.378;8.300;2022-09-14T07:55:28;21.60;99.90
43987;DHT22;29650;47.378;8.300;2022-09-14T07:57:55;21.60;99.90
43987;DHT22;29650;47.378;8.300;2022-09-14T08:00:22;21.80;99.90
43987;DHT22;29650;47.378;8.300;2022-09-14T08:02:53;21.70;99.90
43987;DHT22;29650;47.378;8.300;2022-09-14T08:05:22;21.80;99.90
43987;DHT22;29650;47.378;8.300;2022-09-14T08:07:54;21.80;99.90
43987;DHT22;29650;47.378;8.300;2022-09-14T08:10:22;21.80;99.90
43987;DHT22;29650;47.378;8.300;2022-09-14T08:12:51;21.90;99.90
43987;DHT22;29650;47.378;8.300;2022-09-14T08:15:18;21.90;99.90
43987;DHT22;29650;47.378;8.300;2022-09-14T08:17:46;22.00;99.90
43987;DHT22;29650;47.378;8.300;2022-09-14T08:20:13;22.20;99.90
43987;DHT22;29650;47.378;8.300;2022-09-14T08:22:41;22.30;99.90
43987;DHT22;29650;47.378;8.300;2022-09-14T08:25:11;22.30;99.90
43987;DHT22;29650;47.378;8.300;2022-09-14T08:27:38;22.40;99.90
43987;DHT22;29650;47.378;8.300;2022-09-14T08:30:06;22.50;99.90
43987;DHT22;29650;47.378;8.300;2022-09-14T08:32:33;22.50;99.90
43987;DHT22;29650;47.378;8.300;2022-09-14T08:34:59;22.50;99.90
43987;DHT22;29650;47.378;8.300;2022-09-14T08:37:26;22.60;99.90
43987;DHT22;29650;47.378;8.300;2022-09-14T08:39:53;22.70;99.90
43987;DHT22;29650;47.378;8.300;2022-09-14T08:42:22;22.70;99.90
43987;DHT22;29650;47.378;8.300;2022-09-14T08:44:50;22.80;99.90
43987;DHT22;29650;47.378;8.300;2022-09-14T08:47:24;22.80;99.90
43987;DHT22;29650;47.378;8.300;2022-09-14T08:49:56;22.90;99.90
43987;DHT22;29650;47.378;8.300;2022-09-14T08:52:28;23.00;99.90
43987;DHT22;29650;47.378;8.300;2022-09-14T08:54:59;23.00;99.90
43987;DHT22;29650;47.378;8.300;2022-09-14T08:57:39;23.10;99.90
43987;DHT22;29650;47.378;8.300;2022-09-14T09:00:11;23.20;99.90
43987;DHT22;29650;47.378;8.300;2022-09-14T09:05:35;23.40;99.90
43987;DHT22;29650;47.378;8.300;2022-09-14T09:08:13;23.20;99.90
43987;DHT22;29650;47.378;8.300;2022-09-14T09:10:41;23.20;99.90
43987;DHT22;29650;47.378;8.300;2022-09-14T09:13:14;23.30;99.90
43987;DHT22;29650;47.378;8.300;2022-09-14T09:15:45;23.20;99.90
43987;DHT22;29650;47.378;8.300;2022-09-14T09:18:17;23.10;99.90
43987;DHT22;29650;47.378;8.300;2022-09-14T09:20:47;23.10;99.90
43987;DHT22;29650;47.378;8.300;2022-09-14T09:23:17;23.10;99.90
43987;DHT22;29650;47.378;8.300;2022-09-14T09:25:55;23.10;99.90
43987;DHT22;29650;47.378;8.300;2022-09-14T09:28:26;23.10;99.90
43987;DHT22;29650;47.378;8.300;2022-09-14T09:30:56;23.20;99.90
43987;DHT22;29650;47.378;8.300;2022-09-14T09:33:25;23.30;99.90
43987;DHT22;29650;47.378;8.300;2022-09-14T09:35:53;23.20;99.90
43987;DHT22;29650;47.378;8.300;2022-09-14T09:38:23;23.30;99.90
43987;DHT22;29650;47.378;8.300;2022-09-14T09:40:53;23.40;99.90
43987;DHT22;29650;47.378;8.300;2022-09-14T09:43:20;23.60;99.90
43987;DHT22;29650;47.378;8.300;2022-09-14T09:45:54;23.70;99.90
43987;DHT22;29650;47.378;8.300;2022-09-14T09:48:24;23.70;99.90
43987;DHT22;29650;47.378;8.300;2022-09-14T09:51:03;23.60;99.90
43987;DHT22;29650;47.378;8.300;2022-09-14T09:53:35;23.70;99.90
43987;DHT22;29650;47.378;8.300;2022-09-14T09:56:03;23.60;99.90
43987;DHT22;29650;47.378;8.300;2022-09-14T09:58:33;23.60;99.90
43987;DHT22;29650;47.378;8.300;2022-09-14T10:01:04;23.40;99.90
43987;DHT22;29650;47.378;8.300;2022-09-14T10:03:34;23.50;99.90
43987;DHT22;29650;47.378;8.300;2022-09-14T10:06:07;23.60;99.90
43987;DHT22;29650;47.378;8.300;2022-09-14T10:08:40;23.50;99.90
43987;DHT22;29650;47.378;8.300;2022-09-14T10:11:31;23.60;99.90
43987;DHT22;29650;47.378;8.300;2022-09-14T10:14:01;23.70;99.90
43987;DHT22;29650;47.378;8.300;2022-09-14T10:16:35;23.50;99.90
43987;DHT22;29650;47.378;8.300;2022-09-14T10:19:12;23.80;99.90
43987;DHT22;29650;47.378;8.300;2022-09-14T10:22:01;23.70;99.90
43987;DHT22;29650;47.378;8.300;2022-09-14T10:24:29;23.80;99.90
43987;DHT22;29650;47.378;8.300;2022-09-14T10:26:57;24.00;99.90
43987;DHT22;29650;47.378;8.300;2022-09-14T10:29:31;23.70;99.90
43987;DHT22;29650;47.378;8.300;2022-09-14T10:32:08;23.90;99.90
43987;DHT22;29650;47.378;8.300;2022-09-14T10:34:37;23.90;99.90
43987;DHT22;29650;47.378;8.300;2022-09-14T10:37:17;24.00;99.90
43987;DHT22;29650;47.378;8.300;2022-09-14T10:39:58;23.90;99.90
43987;DHT22;29650;47.378;8.300;2022-09-14T10:42:35;23.90;99.90
43987;DHT22;29650;47.378;8.300;2022-09-14T10:45:15;24.00;99.90
43987;DHT22;29650;47.378;8.300;2022-09-14T10:48:10;24.10;99.90
43987;DHT22;29650;47.378;8.300;2022-09-14T10:50:53;24.30;99.40
43987;DHT22;29650;47.378;8.300;2022-09-14T10:53:31;24.60;99.50
43987;DHT22;29650;47.378;8.300;2022-09-14T10:56:04;24.70;99.30
43987;DHT22;29650;47.378;8.300;2022-09-14T10:58:42;24.80;98.10
43987;DHT22;29650;47.378;8.300;2022-09-14T11:01:25;24.80;97.10
43987;DHT22;29650;47.378;8.300;2022-09-14T11:04:06;24.70;96.60
43987;DHT22;29650;47.378;8.300;2022-09-14T11:06:47;24.50;96.30
43987;DHT22;29650;47.378;8.300;2022-09-14T11:09:20;24.30;95.50
43987;DHT22;29650;47.378;8.300;2022-09-14T11:11:55;24.40;97.40
43987;DHT22;29650;47.378;8.300;2022-09-14T11:14:44;24.50;95.90
43987;DHT22;29650;47.378;8.300;2022-09-14T11:17:38;24.50;95.30
43987;DHT22;29650;47.378;8.300;2022-09-14T11:20:16;24.50;95.80
43987;DHT22;29650;47.378;8.300;2022-09-14T11:22:51;24.50;96.60
43987;DHT22;29650;47.378;8.300;2022-09-14T11:25:23;24.20;94.90
43987;DHT22;29650;47.378;8.300;2022-09-14T11:27:56;24.40;95.50
43987;DHT22;29650;47.378;8.300;2022-09-14T11:30:27;24.40;95.40
43987;DHT22;29650;47.378;8.300;2022-09-14T11:33:00;24.30;95.50
43987;DHT22;29650;47.378;8.300;2022-09-14T11:35:33;24.30;95.50
43987;DHT22;29650;47.378;8.300;2022-09-14T11:38:07;24.30;95.80
43987;DHT22;29650;47.378;8.300;2022-09-14T11:40:43;24.40;96.10
43987;DHT22;29650;47.378;8.300;2022-09-14T11:43:15;24.20;95.50
43987;DHT22;29650;47.378;8.300;2022-09-14T11:45:46;24.10;95.70
43987;DHT22;29650;47.378;8.300;2022-09-14T11:48:19;24.10;96.00
43987;DHT22;29650;47.378;8.300;2022-09-14T11:50:48;24.00;95.90
43987;DHT22;29650;47.378;8.300;2022-09-14T11:53:17;24.10;96.10
43987;DHT22;29650;47.378;8.300;2022-09-14T11:55:46;24.10;97.30
43987;DHT22;29650;47.378;8.300;2022-09-14T11:58:18;24.20;98.10
43987;DHT22;29650;47.378;8.300;2022-09-14T12:01:27;24.10;99.10
43987;DHT22;29650;47.378;8.300;2022-09-14T12:06:47;24.00;99.90
43987;DHT22;29650;47.378;8.300;2022-09-14T12:09:42;23.70;98.50
43987;DHT22;29650;47.378;8.300;2022-09-14T12:12:37;23.80;99.90
43987;DHT22;29650;47.378;8.300;2022-09-14T12:15:29;23.70;99.90
43987;DHT22;29650;47.378;8.300;2022-09-14T12:18:14;23.70;99.90
43987;DHT22;29650;47.378;8.300;2022-09-14T12:20:46;23.80;99.90
43987;DHT22;29650;47.378;8.300;2022-09-14T12:23:24;23.70;99.90
43987;DHT22;29650;47.378;8.300;2022-09-14T12:26:00;23.70;99.90
43987;DHT22;29650;47.378;8.300;2022-09-14T12:28:39;23.60;99.90
43987;DHT22;29650;47.378;8.300;2022-09-14T12:31:29;23.50;99.90
43987;DHT22;29650;47.378;8.300;2022-09-14T12:34:15;23.40;99.90
43987;DHT22;29650;47.378;8.300;2022-09-14T12:40:30;23.40;99.90
43987;DHT22;29650;47.378;8.300;2022-09-14T12:46:31;22.90;99.90
43987;DHT22;29650;47.378;8.300;2022-09-14T12:49:00;23.00;99.90
43987;DHT22;29650;47.378;8.300;2022-09-14T12:51:38;22.90;99.90
43987;DHT22;29650;47.378;8.300;2022-09-14T12:54:19;23.00;99.90
43987;DHT22;29650;47.378;8.300;2022-09-14T12:56:57;23.00;99.90
43987;DHT22;29650;47.378;8.300;2022-09-14T12:59:36;23.10;99.90
43987;DHT22;29650;47.378;8.300;2022-09-14T13:05:26;23.10;99.90
43987;DHT22;29650;47.378;8.300;2022-09-14T13:07:54;23.10;99.90
43987;DHT22;29650;47.378;8.300;2022-09-14T13:10:25;22.90;99.90
43987;DHT22;29650;47.378;8.300;2022-09-14T13:12:57;22.80;99.90
43987;DHT22;29650;47.378;8.300;2022-09-14T13:15:28;22.90;99.90
43987;DHT22;29650;47.378;8.300;2022-09-14T13:18:01;22.90;99.90
43987;DHT22;29650;47.378;8.300;2022-09-14T13:20:30;23.00;99.90
43987;DHT22;29650;47.378;8.300;2022-09-14T13:22:57;23.00;99.90
43987;DHT22;29650;47.378;8.300;2022-09-14T13:25:26;22.90;99.90
43987;DHT22;29650;47.378;8.300;2022-09-14T13:27:56;22.90;99.90
43987;DHT22;29650;47.378;8.300;2022-09-14T13:30:23;22.90;99.90
43987;DHT22;29650;47.378;8.300;2022-09-14T13:32:53;22.90;99.90
43987;DHT22;29650;47.378;8.300;2022-09-14T13:35:26;23.00;99.90
43987;DHT22;29650;47.378;8.300;2022-09-14T13:37:55;22.80;99.90
43987;DHT22;29650;47.378;8.300;2022-09-14T13:40:24;22.80;99.90
43987;DHT22;29650;47.378;8.300;2022-09-14T13:42:52;22.80;99.90
43987;DHT22;29650;47.378;8.300;2022-09-14T13:45:22;22.70;99.90
43987;DHT22;29650;47.378;8.300;2022-09-14T13:47:50;22.90;99.90
43987;DHT22;29650;47.378;8.300;2022-09-14T13:50:18;23.30;99.90
43987;DHT22;29650;47.378;8.300;2022-09-14T13:52:45;23.50;99.90
43987;DHT22;29650;47.378;8.300;2022-09-14T13:55:25;23.20;99.90
43987;DHT22;29650;47.378;8.300;2022-09-14T13:58:13;22.80;99.90
43987;DHT22;29650;47.378;8.300;2022-09-14T14:00:51;23.10;99.90
43987;DHT22;29650;47.378;8.300;2022-09-14T14:03:30;23.30;99.90
43987;DHT22;29650;47.378;8.300;2022-09-14T14:05:58;23.40;99.90
43987;DHT22;29650;47.378;8.300;2022-09-14T14:08:31;23.30;99.90
43987;DHT22;29650;47.378;8.300;2022-09-14T14:11:01;23.40;99.90
43987;DHT22;29650;47.378;8.300;2022-09-14T14:13:28;23.60;99.90
43987;DHT22;29650;47.378;8.300;2022-09-14T14:18:59;23.80;99.90
43987;DHT22;29650;47.378;8.300;2022-09-14T14:21:29;23.90;99.90
43987;DHT22;29650;47.378;8.300;2022-09-14T14:24:15;24.20;99.90
43987;DHT22;29650;47.378;8.300;2022-09-14T14:26:47;23.70;99.90
43987;DHT22;29650;47.378;8.300;2022-09-14T14:29:14;24.00;99.90
43987;DHT22;29650;47.378;8.300;2022-09-14T14:31:44;24.10;99.90
43987;DHT22;29650;47.378;8.300;2022-09-14T14:34:19;24.10;99.90
43987;DHT22;29650;47.378;8.300;2022-09-14T14:36:46;24.00;99.90
43987;DHT22;29650;47.378;8.300;2022-09-14T14:39:15;23.80;99.90
43987;DHT22;29650;47.378;8.300;2022-09-14T14:41:43;23.60;99.90
43987;DHT22;29650;47.378;8.300;2022-09-14T14:44:12;23.70;99.90
43987;DHT22;29650;47.378;8.300;2022-09-14T14:46:41;23.70;99.90
43987;DHT22;29650;47.378;8.300;2022-09-14T14:49:10;23.30;99.90
43987;DHT22;29650;47.378;8.300;2022-09-14T14:51:39;23.10;99.90
43987;DHT22;29650;47.378;8.300;2022-09-14T14:54:07;23.10;99.90
43987;DHT22;29650;47.378;8.300;2022-09-14T14:56:35;23.10;99.90
43987;DHT22;29650;47.378;8.300;2022-09-14T14:59:13;23.20;99.90
43987;DHT22;29650;47.378;8.300;2022-09-14T15:01:40;22.90;99.90
43987;DHT22;29650;47.378;8.300;2022-09-14T15:04:07;22.90;99.90
43987;DHT22;29650;47.378;8.300;2022-09-14T15:06:34;23.10;99.90
43987;DHT22;29650;47.378;8.300;2022-09-14T15:09:02;23.10;99.90
43987;DHT22;29650;47.378;8.300;2022-09-14T15:11:34;23.10;99.90
43987;DHT22;29650;47.378;8.300;2022-09-14T15:14:03;22.90;99.90
43987;DHT22;29650;47.378;8.300;2022-09-14T15:16:30;23.10;99.90
43987;DHT22;29650;47.378;8.300;2022-09-14T15:18:57;23.00;99.90
43987;DHT22;29650;47.378;8.300;2022-09-14T15:21:23;23.30;99.90
43987;DHT22;29650;47.378;8.300;2022-09-14T15:23:50;23.40;99.90
43987;DHT22;29650;47.378;8.300;2022-09-14T15:26:19;23.10;99.90
43987;DHT22;29650;47.378;8.300;2022-09-14T15:28:46;22.80;99.90
43987;DHT22;29650;47.378;8.300;2022-09-14T15:31:14;22.70;99.90
43987;DHT22;29650;47.378;8.300;2022-09-14T15:33:40;22.40;99.90
43987;DHT22;29650;47.378;8.300;2022-09-14T15:36:07;22.40;99.90
43987;DHT22;29650;47.378;8.300;2022-09-14T15:38:35;22.30;99.90
43987;DHT22;29650;47.378;8.300;2022-09-14T15:41:02;22.20;99.90
43987;DHT22;29650;47.378;8.300;2022-09-14T15:43:30;22.30;99.90
43987;DHT22;29650;47.378;8.300;2022-09-14T15:46:00;22.40;99.90
43987;DHT22;29650;47.378;8.300;2022-09-14T15:48:27;22.90;99.90
43987;DHT22;29650;47.378;8.300;2022-09-14T15:50:54;23.00;99.90
43987;DHT22;29650;47.378;8.300;2022-09-14T15:53:25;23.10;99.90
43987;DHT22;29650;47.378;8.300;2022-09-14T15:55:52;23.40;99.90
43987;DHT22;29650;47.378;8.300;2022-09-14T15:58:19;23.60;99.90
43987;DHT22;29650;47.378;8.300;2022-09-14T16:00:47;23.60;99.90
43987;DHT22;29650;47.378;8.300;2022-09-14T16:03:14;23.70;99.90
43987;DHT22;29650;47.378;8.300;2022-09-14T16:05:41;24.00;99.40
43987;DHT22;29650;47.378;8.300;2022-09-14T16:08:08;24.30;98.20
43987;DHT22;29650;47.378;8.300;2022-09-14T16:10:35;24.20;98.90